Terminal Aerodrome Forecast
Issued by NWS

Home | Current Version | Previous Version | Text Only | Print | Product List | Glossary On
Versions: 1 2 3 4 5 6 7 8 9 10 11 12 13 14 15 16 17 18 19
403
FTUS43 KDLH 141736
TAFBRD
TAF
KBRD 141736Z 1418/1518 10010G18KT P6SM BKN200
     FM142100 07008G16KT P6SM -SHRA OVC070
     FM150500 01010KT P6SM -SHRA OVC030
     FM150800 33009KT P6SM BKN035
     FM151700 27006KT P6SM SCT200=

USA.gov is the U.S. government's official web portal to all federal, state and local government web resources and services.